Terminal Aerodrome Forecast
Issued by NWS

Home | Current Version | Previous Version | Text Only | Print | Product List | Glossary On
Versions: 1 2 3 4 5 6 7 8 9 10 11 12 13 14 15 16 17 18
000
FTUS46 KMTR 271700
TAFSTS
TAF
KSTS 271737Z 2718/2818 32005KT P6SM FEW200
     FM272000 VRB04KT P6SM SKC
     FM272200 18010KT P6SM SKC
     FM280500 VRB03KT P6SM SKC
     FM280800 00000KT P6SM BKN015=

USA.gov is the U.S. government's official web portal to all federal, state and local government web resources and services.